sensor_id;sensor_type;location;lat;lon;timestamp;pressure;altitude;pressure_sealevel;temperature;humidity
57827;BME280;43656;57.746;11.780;2023-12-22T00:01:52;96836.97;;;-0.43;100.00
57827;BME280;43656;57.746;11.780;2023-12-22T00:04:18;96861.75;;;-0.44;100.00
57827;BME280;43656;57.746;11.780;2023-12-22T00:06:43;96839.03;;;-0.45;100.00
57827;BME280;43656;57.746;11.780;2023-12-22T00:09:08;96858.19;;;-0.50;100.00
57827;BME280;43656;57.746;11.780;2023-12-22T00:11:34;96844.78;;;-0.37;100.00
57827;BME280;43656;57.746;11.780;2023-12-22T00:13:59;96840.88;;;-0.34;100.00
57827;BME280;43656;57.746;11.780;2023-12-22T00:16:24;96875.03;;;-0.33;100.00
57827;BME280;43656;57.746;11.780;2023-12-22T00:18:50;96837.44;;;-0.35;100.00
57827;BME280;43656;57.746;11.780;2023-12-22T00:21:15;96857.63;;;-0.40;100.00
57827;BME280;43656;57.746;11.780;2023-12-22T00:23:40;96839.75;;;-0.38;100.00
57827;BME280;43656;57.746;11.780;2023-12-22T00:26:06;96814.38;;;-0.39;100.00
57827;BME280;43656;57.746;11.780;2023-12-22T00:28:31;96850.91;;;-0.36;100.00
57827;BME280;43656;57.746;11.780;2023-12-22T00:30:57;96848.38;;;-0.31;100.00
57827;BME280;43656;57.746;11.780;2023-12-22T00:33:23;96860.06;;;-0.27;100.00
57827;BME280;43656;57.746;11.780;2023-12-22T00:35:48;96865.69;;;-0.35;100.00
57827;BME280;43656;57.746;11.780;2023-12-22T00:38:14;96868.78;;;-0.38;100.00
57827;BME280;43656;57.746;11.780;2023-12-22T00:40:39;96877.06;;;-0.35;100.00
57827;BME280;43656;57.746;11.780;2023-12-22T00:43:04;96879.25;;;-0.32;100.00
57827;BME280;43656;57.746;11.780;2023-12-22T00:45:30;96877.75;;;-0.39;100.00
57827;BME280;43656;57.746;11.780;2023-12-22T00:47:55;96905.53;;;-0.37;100.00
57827;BME280;43656;57.746;11.780;2023-12-22T00:50:20;96892.91;;;-0.35;100.00
57827;BME280;43656;57.746;11.780;2023-12-22T00:52:46;96894.41;;;-0.27;100.00
57827;BME280;43656;57.746;11.780;2023-12-22T00:55:11;96871.28;;;-0.55;100.00
57827;BME280;43656;57.746;11.780;2023-12-22T00:57:37;96906.16;;;-0.53;100.00
57827;BME280;43656;57.746;11.780;2023-12-22T01:00:02;96894.41;;;-0.39;100.00
57827;BME280;43656;57.746;11.780;2023-12-22T01:02:30;96879.66;;;-0.47;100.00
57827;BME280;43656;57.746;11.780;2023-12-22T01:04:55;96910.47;;;-0.40;100.00
57827;BME280;43656;57.746;11.780;2023-12-22T01:07:20;96846.66;;;-0.67;100.00
57827;BME280;43656;57.746;11.780;2023-12-22T01:09:46;96858.91;;;-0.73;100.00
57827;BME280;43656;57.746;11.780;2023-12-22T01:12:11;96914.19;;;-0.30;100.00
57827;BME280;43656;57.746;11.780;2023-12-22T01:14:37;96914.75;;;-0.28;100.00
57827;BME280;43656;57.746;11.780;2023-12-22T01:17:02;96921.38;;;-0.37;100.00
57827;BME280;43656;57.746;11.780;2023-12-22T01:19:27;96921.97;;;-0.35;100.00
57827;BME280;43656;57.746;11.780;2023-12-22T01:21:53;96917.22;;;-0.44;100.00
57827;BME280;43656;57.746;11.780;2023-12-22T01:24:19;96931.69;;;-0.47;100.00
57827;BME280;43656;57.746;11.780;2023-12-22T01:26:44;96941.00;;;-0.44;100.00
57827;BME280;43656;57.746;11.780;2023-12-22T01:29:09;96935.41;;;-0.36;100.00
57827;BME280;43656;57.746;11.780;2023-12-22T01:31:35;96923.13;;;-0.31;100.00
57827;BME280;43656;57.746;11.780;2023-12-22T01:34:00;96917.72;;;-0.36;100.00
57827;BME280;43656;57.746;11.780;2023-12-22T01:36:25;96946.78;;;-0.36;100.00
57827;BME280;43656;57.746;11.780;2023-12-22T01:38:51;96927.53;;;-0.55;100.00
57827;BME280;43656;57.746;11.780;2023-12-22T01:41:16;96960.19;;;-0.37;100.00
57827;BME280;43656;57.746;11.780;2023-12-22T01:43:44;96929.38;;;-0.55;100.00
57827;BME280;43656;57.746;11.780;2023-12-22T01:46:11;96960.47;;;-0.27;100.00
57827;BME280;43656;57.746;11.780;2023-12-22T01:48:37;96970.75;;;-0.37;100.00
57827;BME280;43656;57.746;11.780;2023-12-22T01:51:04;97031.66;;;-0.32;100.00
57827;BME280;43656;57.746;11.780;2023-12-22T01:53:30;96948.88;;;-0.26;100.00
57827;BME280;43656;57.746;11.780;2023-12-22T01:55:57;96954.69;;;-0.36;100.00
57827;BME280;43656;57.746;11.780;2023-12-22T01:58:26;96967.50;;;-0.21;100.00
57827;BME280;43656;57.746;11.780;2023-12-22T02:00:54;96952.09;;;-0.24;100.00
57827;BME280;43656;57.746;11.780;2023-12-22T02:03:21;96957.38;;;-0.24;100.00
57827;BME280;43656;57.746;11.780;2023-12-22T02:05:47;96969.19;;;-0.27;100.00
57827;BME280;43656;57.746;11.780;2023-12-22T02:08:15;96974.47;;;-0.27;100.00
57827;BME280;43656;57.746;11.780;2023-12-22T02:10:43;96951.72;;;-0.28;100.00
57827;BME280;43656;57.746;11.780;2023-12-22T02:13:08;96992.88;;;-0.20;100.00
57827;BME280;43656;57.746;11.780;2023-12-22T02:15:34;96994.94;;;-0.22;100.00
57827;BME280;43656;57.746;11.780;2023-12-22T02:18:13;97001.03;;;-0.21;100.00
57827;BME280;43656;57.746;11.780;2023-12-22T02:20:39;97000.72;;;-0.13;100.00
57827;BME280;43656;57.746;11.780;2023-12-22T02:23:05;96976.56;;;-0.17;100.00
57827;BME280;43656;57.746;11.780;2023-12-22T02:25:30;97005.19;;;-0.14;100.00
57827;BME280;43656;57.746;11.780;2023-12-22T02:27:57;97008.28;;;-0.17;100.00
57827;BME280;43656;57.746;11.780;2023-12-22T02:33:04;96997.75;;;-0.35;100.00
57827;BME280;43656;57.746;11.780;2023-12-22T02:35:33;97012.41;;;-0.21;100.00
57827;BME280;43656;57.746;11.780;2023-12-22T02:38:00;97006.66;;;-0.30;100.00
57827;BME280;43656;57.746;11.780;2023-12-22T02:40:27;97020.06;;;-0.31;100.00
57827;BME280;43656;57.746;11.780;2023-12-22T02:42:53;97031.78;;;-0.27;100.00
57827;BME280;43656;57.746;11.780;2023-12-22T02:45:19;97042.34;;;-0.27;100.00
57827;BME280;43656;57.746;11.780;2023-12-22T02:47:46;97018.56;;;-0.27;100.00
57827;BME280;43656;57.746;11.780;2023-12-22T02:50:13;96993.38;;;-0.41;100.00
57827;BME280;43656;57.746;11.780;2023-12-22T02:52:39;97033.84;;;-0.29;100.00
57827;BME280;43656;57.746;11.780;2023-12-22T02:55:05;97053.22;;;-0.35;100.00
57827;BME280;43656;57.746;11.780;2023-12-22T02:57:30;97028.09;;;-0.56;100.00
57827;BME280;43656;57.746;11.780;2023-12-22T02:59:56;97044.00;;;-0.44;100.00
57827;BME280;43656;57.746;11.780;2023-12-22T03:02:22;97054.28;;;-0.36;100.00
57827;BME280;43656;57.746;11.780;2023-12-22T03:04:47;97058.28;;;-0.34;100.00
57827;BME280;43656;57.746;11.780;2023-12-22T03:07:13;97054.19;;;-0.48;100.00
57827;BME280;43656;57.746;11.780;2023-12-22T03:09:39;97056.38;;;-0.45;100.00
57827;BME280;43656;57.746;11.780;2023-12-22T03:12:06;97077.44;;;-0.38;100.00
57827;BME280;43656;57.746;11.780;2023-12-22T03:14:31;97072.59;;;-0.41;100.00
57827;BME280;43656;57.746;11.780;2023-12-22T03:17:01;97067.91;;;-0.39;100.00
57827;BME280;43656;57.746;11.780;2023-12-22T03:19:26;97079.13;;;-0.44;100.00
57827;BME280;43656;57.746;11.780;2023-12-22T03:21:52;97053.66;;;-0.57;100.00
57827;BME280;43656;57.746;11.780;2023-12-22T03:24:17;97076.63;;;-0.39;100.00
57827;BME280;43656;57.746;11.780;2023-12-22T03:26:50;97055.50;;;-0.57;100.00
57827;BME280;43656;57.746;11.780;2023-12-22T03:29:16;97085.22;;;-0.43;100.00
57827;BME280;43656;57.746;11.780;2023-12-22T03:31:42;97102.81;;;-0.37;100.00
57827;BME280;43656;57.746;11.780;2023-12-22T03:34:07;97099.44;;;-0.44;100.00
57827;BME280;43656;57.746;11.780;2023-12-22T03:36:33;97116.91;;;-0.43;100.00
57827;BME280;43656;57.746;11.780;2023-12-22T03:38:58;97123.81;;;-0.42;100.00
57827;BME280;43656;57.746;11.780;2023-12-22T03:41:24;97128.06;;;-0.41;100.00
57827;BME280;43656;57.746;11.780;2023-12-22T03:43:49;97093.50;;;-0.58;100.00
57827;BME280;43656;57.746;11.780;2023-12-22T03:46:15;97118.75;;;-0.44;100.00
57827;BME280;43656;57.746;11.780;2023-12-22T03:48:40;97134.00;;;-0.46;100.00
57827;BME280;43656;57.746;11.780;2023-12-22T03:51:06;97144.22;;;-0.50;100.00
57827;BME280;43656;57.746;11.780;2023-12-22T03:53:31;97133.47;;;-0.55;100.00
57827;BME280;43656;57.746;11.780;2023-12-22T03:55:56;97152.94;;;-0.49;100.00
57827;BME280;43656;57.746;11.780;2023-12-22T03:58:22;97156.44;;;-0.55;100.00
57827;BME280;43656;57.746;11.780;2023-12-22T04:00:47;97162.84;;;-0.44;100.00
57827;BME280;43656;57.746;11.780;2023-12-22T04:03:13;97172.53;;;-0.38;100.00
57827;BME280;43656;57.746;11.780;2023-12-22T04:05:38;97186.34;;;-0.36;100.00
57827;BME280;43656;57.746;11.780;2023-12-22T04:08:04;97189.41;;;-0.39;100.00
57827;BME280;43656;57.746;11.780;2023-12-22T04:10:30;97201.78;;;-0.40;100.00
57827;BME280;43656;57.746;11.780;2023-12-22T04:12:55;97182.47;;;-0.59;100.00
57827;BME280;43656;57.746;11.780;2023-12-22T04:15:21;97210.81;;;-0.48;100.00
57827;BME280;43656;57.746;11.780;2023-12-22T04:17:46;97218.91;;;-0.42;100.00
57827;BME280;43656;57.746;11.780;2023-12-22T04:20:11;97215.66;;;-0.44;100.00
57827;BME280;43656;57.746;11.780;2023-12-22T04:22:38;97217.16;;;-0.55;100.00
57827;BME280;43656;57.746;11.780;2023-12-22T04:25:04;97231.94;;;-0.48;100.00
57827;BME280;43656;57.746;11.780;2023-12-22T04:27:31;97230.91;;;-0.47;100.00
57827;BME280;43656;57.746;11.780;2023-12-22T04:29:56;97248.81;;;-0.49;100.00
57827;BME280;43656;57.746;11.780;2023-12-22T04:32:22;97245.13;;;-0.48;100.00
57827;BME280;43656;57.746;11.780;2023-12-22T04:34:47;97250.03;;;-0.51;100.00
57827;BME280;43656;57.746;11.780;2023-12-22T04:37:13;97215.78;;;-0.83;100.00
57827;BME280;43656;57.746;11.780;2023-12-22T04:39:38;97271.81;;;-0.56;100.00
57827;BME280;43656;57.746;11.780;2023-12-22T04:42:04;97276.88;;;-0.54;100.00
57827;BME280;43656;57.746;11.780;2023-12-22T04:44:29;97289.44;;;-0.50;100.00
57827;BME280;43656;57.746;11.780;2023-12-22T04:46:55;97288.25;;;-0.54;100.00
57827;BME280;43656;57.746;11.780;2023-12-22T04:49:20;97300.69;;;-0.61;100.00
57827;BME280;43656;57.746;11.780;2023-12-22T04:51:45;97287.34;;;-0.66;100.00
57827;BME280;43656;57.746;11.780;2023-12-22T04:54:11;97273.63;;;-0.81;100.00
57827;BME280;43656;57.746;11.780;2023-12-22T04:56:36;97299.22;;;-0.57;100.00
57827;BME280;43656;57.746;11.780;2023-12-22T04:59:01;97278.91;;;-0.81;100.00
57827;BME280;43656;57.746;11.780;2023-12-22T05:01:27;97316.63;;;-0.74;100.00
57827;BME280;43656;57.746;11.780;2023-12-22T05:03:53;97330.84;;;-0.75;100.00
57827;BME280;43656;57.746;11.780;2023-12-22T05:06:19;97326.59;;;-0.76;100.00
57827;BME280;43656;57.746;11.780;2023-12-22T05:08:45;97340.97;;;-0.72;100.00
57827;BME280;43656;57.746;11.780;2023-12-22T05:11:10;97310.78;;;-0.83;100.00
57827;BME280;43656;57.746;11.780;2023-12-22T05:13:35;97338.53;;;-0.74;100.00
57827;BME280;43656;57.746;11.780;2023-12-22T05:16:01;97364.97;;;-0.80;100.00
57827;BME280;43656;57.746;11.780;2023-12-22T05:18:27;97329.53;;;-0.98;100.00
57827;BME280;43656;57.746;11.780;2023-12-22T05:20:52;97364.91;;;-0.67;100.00
57827;BME280;43656;57.746;11.780;2023-12-22T05:23:20;97357.25;;;-0.75;100.00
57827;BME280;43656;57.746;11.780;2023-12-22T05:25:45;97369.59;;;-0.69;100.00
57827;BME280;43656;57.746;11.780;2023-12-22T05:28:10;97382.75;;;-0.62;100.00
57827;BME280;43656;57.746;11.780;2023-12-22T05:30:36;97353.59;;;-0.81;100.00
57827;BME280;43656;57.746;11.780;2023-12-22T05:33:01;97398.63;;;-0.69;100.00
57827;BME280;43656;57.746;11.780;2023-12-22T05:35:26;97338.16;;;-1.15;100.00
57827;BME280;43656;57.746;11.780;2023-12-22T05:37:52;97394.81;;;-0.80;100.00
57827;BME280;43656;57.746;11.780;2023-12-22T05:40:17;97423.59;;;-0.65;100.00
57827;BME280;43656;57.746;11.780;2023-12-22T05:42:42;97425.59;;;-0.60;100.00
57827;BME280;43656;57.746;11.780;2023-12-22T05:45:08;97433.91;;;-0.57;100.00
57827;BME280;43656;57.746;11.780;2023-12-22T05:47:36;97439.47;;;-0.72;100.00
57827;BME280;43656;57.746;11.780;2023-12-22T05:50:01;97460.31;;;-0.57;100.00
57827;BME280;43656;57.746;11.780;2023-12-22T05:52:27;97445.34;;;-0.69;100.00
57827;BME280;43656;57.746;11.780;2023-12-22T05:54:52;97460.97;;;-0.68;100.00
57827;BME280;43656;57.746;11.780;2023-12-22T05:57:19;97456.72;;;-0.69;100.00
57827;BME280;43656;57.746;11.780;2023-12-22T05:59:44;97487.97;;;-0.59;100.00
57827;BME280;43656;57.746;11.780;2023-12-22T06:02:10;97460.63;;;-0.78;100.00
57827;BME280;43656;57.746;11.780;2023-12-22T06:04:35;97481.06;;;-0.67;100.00
57827;BME280;43656;57.746;11.780;2023-12-22T06:07:00;97466.50;;;-0.76;100.00
57827;BME280;43656;57.746;11.780;2023-12-22T06:09:26;97477.88;;;-0.76;100.00
57827;BME280;43656;57.746;11.780;2023-12-22T06:11:51;97489.34;;;-0.57;100.00
57827;BME280;43656;57.746;11.780;2023-12-22T06:14:18;97508.06;;;-0.58;100.00
57827;BME280;43656;57.746;11.780;2023-12-22T06:16:43;97514.78;;;-0.62;100.00
57827;BME280;43656;57.746;11.780;2023-12-22T06:19:08;97508.88;;;-0.58;100.00
57827;BME280;43656;57.746;11.780;2023-12-22T06:21:37;97537.50;;;-0.55;100.00
57827;BME280;43656;57.746;11.780;2023-12-22T06:24:03;97540.38;;;-0.56;100.00
57827;BME280;43656;57.746;11.780;2023-12-22T06:26:28;97546.88;;;-0.65;100.00
57827;BME280;43656;57.746;11.780;2023-12-22T06:28:54;97562.09;;;-0.61;100.00
57827;BME280;43656;57.746;11.780;2023-12-22T06:31:21;97552.56;;;-0.62;100.00
57827;BME280;43656;57.746;11.780;2023-12-22T06:33:50;97534.72;;;-0.80;100.00
57827;BME280;43656;57.746;11.780;2023-12-22T06:36:20;97580.00;;;-0.63;100.00
57827;BME280;43656;57.746;11.780;2023-12-22T06:38:47;97568.81;;;-0.65;100.00
57827;BME280;43656;57.746;11.780;2023-12-22T06:41:24;97568.84;;;-0.85;100.00
57827;BME280;43656;57.746;11.780;2023-12-22T06:43:50;97595.63;;;-0.68;100.00
57827;BME280;43656;57.746;11.780;2023-12-22T06:46:20;97608.44;;;-0.78;100.00
57827;BME280;43656;57.746;11.780;2023-12-22T06:48:47;97615.94;;;-0.75;100.00
57827;BME280;43656;57.746;11.780;2023-12-22T06:51:26;97621.63;;;-0.78;100.00
57827;BME280;43656;57.746;11.780;2023-12-22T06:53:52;97635.47;;;-0.76;100.00
57827;BME280;43656;57.746;11.780;2023-12-22T06:56:19;97572.56;;;-1.19;100.00
57827;BME280;43656;57.746;11.780;2023-12-22T06:58:46;97640.75;;;-0.76;100.00
57827;BME280;43656;57.746;11.780;2023-12-22T07:01:21;97652.69;;;-0.80;100.00
57827;BME280;43656;57.746;11.780;2023-12-22T07:03:47;97652.09;;;-0.82;100.00
57827;BME280;43656;57.746;11.780;2023-12-22T07:06:14;97665.88;;;-0.67;100.00
57827;BME280;43656;57.746;11.780;2023-12-22T07:08:41;97681.16;;;-0.69;100.00
57827;BME280;43656;57.746;11.780;2023-12-22T07:11:08;97675.88;;;-0.82;100.00
57827;BME280;43656;57.746;11.780;2023-12-22T07:13:34;97688.03;;;-0.81;100.00
57827;BME280;43656;57.746;11.780;2023-12-22T07:15:59;97689.88;;;-0.75;100.00
57827;BME280;43656;57.746;11.780;2023-12-22T07:18:27;97690.28;;;-0.78;100.00
57827;BME280;43656;57.746;11.780;2023-12-22T07:20:56;97689.88;;;-0.88;100.00
57827;BME280;43656;57.746;11.780;2023-12-22T07:23:24;97706.72;;;-0.83;100.00
57827;BME280;43656;57.746;11.780;2023-12-22T07:25:49;97708.13;;;-0.74;100.00
57827;BME280;43656;57.746;11.780;2023-12-22T07:28:15;97711.81;;;-0.75;100.00
57827;BME280;43656;57.746;11.780;2023-12-22T07:30:41;97720.94;;;-0.71;100.00
57827;BME280;43656;57.746;11.780;2023-12-22T07:33:06;97719.31;;;-0.72;100.00
57827;BME280;43656;57.746;11.780;2023-12-22T07:35:32;97732.53;;;-0.72;100.00
57827;BME280;43656;57.746;11.780;2023-12-22T07:37:57;97719.31;;;-0.85;100.00
57827;BME280;43656;57.746;11.780;2023-12-22T07:40:22;97744.28;;;-0.61;100.00
57827;BME280;43656;57.746;11.780;2023-12-22T07:42:48;97737.00;;;-0.72;100.00
57827;BME280;43656;57.746;11.780;2023-12-22T07:45:13;97755.66;;;-0.74;100.00
57827;BME280;43656;57.746;11.780;2023-12-22T07:47:39;97756.06;;;-0.77;100.00
57827;BME280;43656;57.746;11.780;2023-12-22T07:50:04;97762.38;;;-0.78;100.00
57827;BME280;43656;57.746;11.780;2023-12-22T07:52:33;97755.47;;;-0.79;100.00
57827;BME280;43656;57.746;11.780;2023-12-22T07:54:59;97776.59;;;-0.79;100.00
57827;BME280;43656;57.746;11.780;2023-12-22T07:57:24;97790.19;;;-0.75;100.00
57827;BME280;43656;57.746;11.780;2023-12-22T07:59:49;97781.66;;;-0.77;100.00
57827;BME280;43656;57.746;11.780;2023-12-22T08:02:15;97771.50;;;-0.67;100.00
57827;BME280;43656;57.746;11.780;2023-12-22T08:04:40;97792.63;;;-0.67;100.00
57827;BME280;43656;57.746;11.780;2023-12-22T08:07:06;97788.78;;;-0.64;100.00
57827;BME280;43656;57.746;11.780;2023-12-22T08:09:31;97807.47;;;-0.73;100.00
57827;BME280;43656;57.746;11.780;2023-12-22T08:11:58;97803.19;;;-0.67;100.00
57827;BME280;43656;57.746;11.780;2023-12-22T08:14:23;97810.31;;;-0.61;100.00
57827;BME280;43656;57.746;11.780;2023-12-22T08:16:49;97802.81;;;-0.57;100.00
57827;BME280;43656;57.746;11.780;2023-12-22T08:19:14;97769.66;;;-0.73;100.00
57827;BME280;43656;57.746;11.780;2023-12-22T08:21:42;97814.78;;;-0.55;100.00
57827;BME280;43656;57.746;11.780;2023-12-22T08:24:09;97803.84;;;-0.52;100.00
57827;BME280;43656;57.746;11.780;2023-12-22T08:26:35;97805.84;;;-0.54;100.00
57827;BME280;43656;57.746;11.780;2023-12-22T08:29:01;97837.97;;;-0.30;100.00
57827;BME280;43656;57.746;11.780;2023-12-22T08:31:26;97840.03;;;-0.26;100.00
57827;BME280;43656;57.746;11.780;2023-12-22T08:33:52;97840.22;;;-0.20;100.00
57827;BME280;43656;57.746;11.780;2023-12-22T08:36:17;97844.09;;;-0.23;100.00
57827;BME280;43656;57.746;11.780;2023-12-22T08:38:42;97858.72;;;-0.14;100.00
57827;BME280;43656;57.746;11.780;2023-12-22T08:41:08;97864.41;;;-0.10;100.00
57827;BME280;43656;57.746;11.780;2023-12-22T08:43:33;97864.81;;;-0.20;100.00
57827;BME280;43656;57.746;11.780;2023-12-22T08:45:59;97865.66;;;-0.06;100.00
57827;BME280;43656;57.746;11.780;2023-12-22T08:48:25;97858.31;;;-0.11;100.00
57827;BME280;43656;57.746;11.780;2023-12-22T08:50:50;97869.28;;;-0.01;100.00
57827;BME280;43656;57.746;11.780;2023-12-22T08:53:16;97877.84;;;0.02;100.00
57827;BME280;43656;57.746;11.780;2023-12-22T08:55:41;97887.78;;;-0.01;100.00
57827;BME280;43656;57.746;11.780;2023-12-22T08:58:06;97880.47;;;-0.05;100.00
57827;BME280;43656;57.746;11.780;2023-12-22T09:00:31;97889.03;;;-0.10;100.00
57827;BME280;43656;57.746;11.780;2023-12-22T09:02:57;97906.91;;;-0.25;100.00
57827;BME280;43656;57.746;11.780;2023-12-22T09:05:22;97895.94;;;-0.22;100.00
57827;BME280;43656;57.746;11.780;2023-12-22T09:07:48;97885.13;;;-0.20;100.00
57827;BME280;43656;57.746;11.780;2023-12-22T09:10:13;97896.53;;;-0.07;100.00
57827;BME280;43656;57.746;11.780;2023-12-22T09:12:38;97903.47;;;0.01;100.00
57827;BME280;43656;57.746;11.780;2023-12-22T09:15:04;97898.19;;;0.08;100.00
57827;BME280;43656;57.746;11.780;2023-12-22T09:17:29;97866.06;;;-0.03;100.00
57827;BME280;43656;57.746;11.780;2023-12-22T09:19:55;97921.56;;;0.17;100.00
57827;BME280;43656;57.746;11.780;2023-12-22T09:22:20;97908.53;;;0.16;100.00
57827;BME280;43656;57.746;11.780;2023-12-22T09:24:46;97906.31;;;0.13;100.00
57827;BME280;43656;57.746;11.780;2023-12-22T09:27:12;97803.63;;;-0.43;100.00
57827;BME280;43656;57.746;11.780;2023-12-22T09:29:38;97913.44;;;0.26;100.00
57827;BME280;43656;57.746;11.780;2023-12-22T09:32:03;97889.84;;;0.11;100.00
57827;BME280;43656;57.746;11.780;2023-12-22T09:34:29;97925.03;;;0.05;100.00
57827;BME280;43656;57.746;11.780;2023-12-22T09:36:54;97897.38;;;0.01;100.00
57827;BME280;43656;57.746;11.780;2023-12-22T09:39:20;97857.91;;;-0.28;100.00
57827;BME280;43656;57.746;11.780;2023-12-22T09:41:48;97923.19;;;0.05;100.00
57827;BME280;43656;57.746;11.780;2023-12-22T09:44:19;97921.75;;;-0.04;100.00
57827;BME280;43656;57.746;11.780;2023-12-22T09:46:47;97917.25;;;-0.17;100.00
57827;BME280;43656;57.746;11.780;2023-12-22T09:49:16;97920.13;;;-0.18;100.00
57827;BME280;43656;57.746;11.780;2023-12-22T09:51:42;97899.38;;;-0.21;100.00
57827;BME280;43656;57.746;11.780;2023-12-22T09:54:10;97932.72;;;-0.07;100.00
57827;BME280;43656;57.746;11.780;2023-12-22T09:56:37;97927.25;;;-0.06;100.00
57827;BME280;43656;57.746;11.780;2023-12-22T09:59:11;97955.72;;;-0.01;100.00
57827;BME280;43656;57.746;11.780;2023-12-22T10:01:43;97931.53;;;0.09;100.00
57827;BME280;43656;57.746;11.780;2023-12-22T10:04:11;97939.84;;;-0.01;100.00
57827;BME280;43656;57.746;11.780;2023-12-22T10:06:37;97954.72;;;0.07;100.00
57827;BME280;43656;57.746;11.780;2023-12-22T10:09:04;97872.28;;;-0.50;100.00
57827;BME280;43656;57.746;11.780;2023-12-22T10:11:32;97925.59;;;-0.07;100.00
57827;BME280;43656;57.746;11.780;2023-12-22T10:13:59;97957.38;;;0.00;100.00
57827;BME280;43656;57.746;11.780;2023-12-22T10:16:25;97967.31;;;-0.02;100.00
57827;BME280;43656;57.746;11.780;2023-12-22T10:18:51;97960.19;;;0.05;100.00
57827;BME280;43656;57.746;11.780;2023-12-22T10:21:16;97977.50;;;0.08;100.00
57827;BME280;43656;57.746;11.780;2023-12-22T10:23:42;97957.31;;;-0.07;100.00
57827;BME280;43656;57.746;11.780;2023-12-22T10:26:11;97969.97;;;-0.02;100.00
57827;BME280;43656;57.746;11.780;2023-12-22T10:28:36;97951.81;;;-0.18;100.00
57827;BME280;43656;57.746;11.780;2023-12-22T10:31:02;97979.28;;;-0.13;100.00
57827;BME280;43656;57.746;11.780;2023-12-22T10:33:32;97952.22;;;-0.28;100.00
57827;BME280;43656;57.746;11.780;2023-12-22T10:36:01;97973.59;;;-0.16;100.00
57827;BME280;43656;57.746;11.780;2023-12-22T10:38:33;97953.44;;;-0.24;100.00
57827;BME280;43656;57.746;11.780;2023-12-22T10:41:01;97985.19;;;-0.04;100.00
57827;BME280;43656;57.746;11.780;2023-12-22T10:43:26;97975.22;;;-0.09;100.00
57827;BME280;43656;57.746;11.780;2023-12-22T10:45:52;97973.59;;;-0.16;100.00
57827;BME280;43656;57.746;11.780;2023-12-22T10:48:17;97874.28;;;-0.72;100.00
57827;BME280;43656;57.746;11.780;2023-12-22T10:50:43;97977.06;;;-0.09;100.00
57827;BME280;43656;57.746;11.780;2023-12-22T10:53:11;97960.16;;;-0.21;100.00
57827;BME280;43656;57.746;11.780;2023-12-22T10:55:36;97980.31;;;-0.01;100.00
57827;BME280;43656;57.746;11.780;2023-12-22T10:58:05;97978.06;;;-0.10;100.00
57827;BME280;43656;57.746;11.780;2023-12-22T11:00:32;97977.06;;;-0.09;100.00
57827;BME280;43656;57.746;11.780;2023-12-22T11:03:02;97959.75;;;-0.25;100.00
57827;BME280;43656;57.746;11.780;2023-12-22T11:05:32;97991.47;;;-0.12;100.00
57827;BME280;43656;57.746;11.780;2023-12-22T11:08:00;97991.91;;;-0.08;100.00
57827;BME280;43656;57.746;11.780;2023-12-22T11:10:30;97997.59;;;0.02;100.00
57827;BME280;43656;57.746;11.780;2023-12-22T11:12:57;97985.41;;;-0.06;100.00
57827;BME280;43656;57.746;11.780;2023-12-22T11:15:23;97968.13;;;-0.02;100.00
57827;BME280;43656;57.746;11.780;2023-12-22T11:17:51;97989.09;;;0.07;100.00
57827;BME280;43656;57.746;11.780;2023-12-22T11:20:17;98004.97;;;0.20;100.00
57827;BME280;43656;57.746;11.780;2023-12-22T11:22:43;98004.38;;;0.31;100.00
57827;BME280;43656;57.746;11.780;2023-12-22T11:25:10;97996.03;;;0.28;100.00
57827;BME280;43656;57.746;11.780;2023-12-22T11:27:36;97999.47;;;0.28;100.00
57827;BME280;43656;57.746;11.780;2023-12-22T11:30:04;98003.97;;;0.21;100.00
57827;BME280;43656;57.746;11.780;2023-12-22T11:32:33;98015.53;;;0.13;100.00
57827;BME280;43656;57.746;11.780;2023-12-22T11:34:59;98007.19;;;0.30;100.00
57827;BME280;43656;57.746;11.780;2023-12-22T11:37:25;98015.56;;;0.27;100.00
57827;BME280;43656;57.746;11.780;2023-12-22T11:39:50;98003.34;;;0.32;100.00
57827;BME280;43656;57.746;11.780;2023-12-22T11:42:20;98004.16;;;0.33;100.00
57827;BME280;43656;57.746;11.780;2023-12-22T11:44:46;98011.28;;;0.26;100.00
57827;BME280;43656;57.746;11.780;2023-12-22T11:47:13;98008.63;;;0.19;100.00
57827;BME280;43656;57.746;11.780;2023-12-22T11:49:40;98003.75;;;0.29;100.00
57827;BME280;43656;57.746;11.780;2023-12-22T11:52:14;98012.72;;;0.28;100.00
57827;BME280;43656;57.746;11.780;2023-12-22T11:54:50;98020.22;;;0.25;100.00
57827;BME280;43656;57.746;11.780;2023-12-22T11:57:37;98021.28;;;0.43;100.00
57827;BME280;43656;57.746;11.780;2023-12-22T12:00:08;98016.78;;;0.44;100.00
57827;BME280;43656;57.746;11.780;2023-12-22T12:02:37;98042.44;;;0.50;100.00
57827;BME280;43656;57.746;11.780;2023-12-22T12:05:04;98014.72;;;0.33;100.00
57827;BME280;43656;57.746;11.780;2023-12-22T12:07:42;98034.09;;;0.46;100.00
57827;BME280;43656;57.746;11.780;2023-12-22T12:13:05;98038.16;;;0.49;100.00
57827;BME280;43656;57.746;11.780;2023-12-22T12:15:33;98032.25;;;0.40;100.00
57827;BME280;43656;57.746;11.780;2023-12-22T12:17:59;98000.28;;;0.22;100.00
57827;BME280;43656;57.746;11.780;2023-12-22T12:20:25;98030.81;;;0.31;100.00
57827;BME280;43656;57.746;11.780;2023-12-22T12:22:51;98002.72;;;0.10;100.00
57827;BME280;43656;57.746;11.780;2023-12-22T12:25:16;98053.00;;;0.30;100.00
57827;BME280;43656;57.746;11.780;2023-12-22T12:27:42;98025.72;;;0.30;100.00
57827;BME280;43656;57.746;11.780;2023-12-22T12:30:13;98048.31;;;0.32;100.00
57827;BME280;43656;57.746;11.780;2023-12-22T12:32:42;98010.03;;;0.15;100.00
57827;BME280;43656;57.746;11.780;2023-12-22T12:35:08;98012.28;;;0.11;100.00
57827;BME280;43656;57.746;11.780;2023-12-22T12:37:34;98055.03;;;0.28;100.00
57827;BME280;43656;57.746;11.780;2023-12-22T12:40:01;98061.13;;;0.29;100.00
57827;BME280;43656;57.746;11.780;2023-12-22T12:42:30;98053.19;;;0.35;100.00